createdAt,value
2018-08-24T00:00:22.719Z,99471.23
2018-08-24T00:00:53.893Z,99470.12
2018-08-24T00:01:25.112Z,99467.59
2018-08-24T00:01:56.222Z,99470.38
2018-08-24T00:02:27.327Z,99468.80
2018-08-24T00:02:58.484Z,99469.26
2018-08-24T00:03:29.662Z,99465.03
2018-08-24T00:04:00.805Z,99471.92
2018-08-24T00:04:31.957Z,99465.50
2018-08-24T00:05:03.077Z,99466.23
2018-08-24T00:05:34.241Z,99467.94
2018-08-24T00:06:05.384Z,99468.19
2018-08-24T00:06:36.570Z,99469.02
2018-08-24T00:07:07.688Z,99470.72
2018-08-24T00:07:38.804Z,99466.73
2018-08-24T00:08:09.916Z,99465.62
2018-08-24T00:08:41.147Z,99476.88
2018-08-24T00:09:12.337Z,99474.06
2018-08-24T00:09:43.448Z,99471.66
2018-08-24T00:10:14.609Z,99471.16
2018-08-24T00:10:45.730Z,99471.34
2018-08-24T00:11:16.891Z,99470.85
2018-08-24T00:11:48.008Z,99469.98
2018-08-24T00:12:19.203Z,99470.23
2018-08-24T00:12:50.380Z,99473.48
2018-08-24T00:13:21.546Z,99480.00
2018-08-24T00:13:52.712Z,99473.48
2018-08-24T00:14:23.884Z,99476.47
2018-08-24T00:14:55.056Z,99479.47
2018-08-24T00:15:26.171Z,99479.22
2018-08-24T00:15:57.316Z,99487.30
2018-08-24T00:16:28.487Z,99481.74
2018-08-24T00:16:59.757Z,99482.91
2018-08-24T00:17:30.931Z,99479.62
2018-08-24T00:18:02.104Z,99482.98
2018-08-24T00:18:33.340Z,99484.55
2018-08-24T00:19:04.505Z,99484.30
2018-08-24T00:19:35.684Z,99477.87
2018-08-24T00:20:06.892Z,99479.69
2018-08-24T00:20:38.096Z,99480.77
2018-08-24T00:21:09.270Z,99481.34
2018-08-24T00:21:40.528Z,99479.19
2018-08-24T00:22:11.657Z,99477.94
2018-08-24T00:22:42.762Z,99484.95
2018-08-24T00:23:13.864Z,99478.06
2018-08-24T00:23:45.033Z,99476.48
2018-08-24T00:24:16.141Z,99478.97
2018-08-24T00:24:47.312Z,99481.63
2018-08-24T00:25:18.524Z,99481.63
2018-08-24T00:25:49.680Z,99477.27
2018-08-24T00:26:20.847Z,99475.11
2018-08-24T00:26:51.960Z,99486.19
2018-08-24T00:27:23.135Z,99483.91
2018-08-24T00:27:54.353Z,99481.45
2018-08-24T00:28:25.584Z,99486.42
2018-08-24T00:28:56.752Z,99483.02
2018-08-24T00:29:27.880Z,99482.65
2018-08-24T00:29:58.988Z,99484.09
2018-08-24T00:30:30.140Z,99479.37
2018-08-24T00:31:01.301Z,99482.02
2018-08-24T00:31:32.426Z,99480.31
2018-08-24T00:32:03.539Z,99478.39
2018-08-24T00:32:35.220Z,99481.77
2018-08-24T00:33:06.396Z,99481.77
2018-08-24T00:33:37.569Z,99484.53
2018-08-24T00:34:08.741Z,99484.42
2018-08-24T00:34:39.854Z,99484.42
2018-08-24T00:35:11.012Z,99488.52
2018-08-24T00:35:42.206Z,99454.39
2018-08-24T00:36:13.367Z,99477.53
2018-08-24T00:36:44.541Z,99483.91
2018-08-24T00:37:15.687Z,99483.16
2018-08-24T00:37:46.816Z,99480.63
2018-08-24T00:38:17.992Z,99480.25
2018-08-24T00:38:49.114Z,99480.74
2018-08-24T00:39:20.233Z,99484.34
2018-08-24T00:39:51.392Z,99481.55
2018-08-24T00:40:22.565Z,99475.50
2018-08-24T00:40:53.684Z,99483.95
2018-08-24T00:41:24.848Z,99481.76
2018-08-24T00:41:55.961Z,99481.76
2018-08-24T00:42:27.165Z,99483.08
2018-08-24T00:42:58.337Z,99487.44
2018-08-24T00:43:29.521Z,99481.18
2018-08-24T00:44:00.679Z,99483.45
2018-08-24T00:44:31.848Z,99483.08
2018-08-24T00:45:03.031Z,99481.76
2018-08-24T00:45:34.198Z,99487.55
2018-08-24T00:46:05.445Z,99481.76
2018-08-24T00:46:36.631Z,99487.30
2018-08-24T00:47:07.739Z,99484.50
2018-08-24T00:47:38.883Z,99482.80
2018-08-24T00:48:10.932Z,99475.54
2018-08-24T00:48:42.136Z,99483.35
2018-08-24T00:49:13.309Z,99478.94
2018-08-24T00:49:44.490Z,99490.23
2018-08-24T00:50:15.617Z,99480.55
2018-08-24T00:50:46.813Z,99483.83
2018-08-24T00:51:17.931Z,99481.80
2018-08-24T00:51:49.153Z,99480.10
2018-08-24T00:52:20.339Z,99475.98
2018-08-24T00:52:51.489Z,99477.50
2018-08-24T00:53:22.723Z,99460.06
2018-08-24T00:53:53.904Z,99487.99
2018-08-24T00:54:25.080Z,99478.45
2018-08-24T00:54:56.179Z,99485.95
2018-08-24T00:55:27.431Z,99492.77
2018-08-24T00:55:58.589Z,99487.69
2018-08-24T00:56:29.714Z,99488.53
2018-08-24T00:57:00.881Z,99487.69
2018-08-24T00:57:32.036Z,99484.66
2018-08-24T00:58:03.293Z,99482.39
2018-08-24T00:58:34.477Z,99487.20
2018-08-24T00:59:05.662Z,99486.74
2018-08-24T00:59:36.904Z,99486.25
2018-08-24T01:00:08.015Z,99486.36
2018-08-24T01:00:39.177Z,99485.05
2018-08-24T01:01:10.345Z,99482.96
2018-08-24T01:01:41.538Z,99488.00
2018-08-24T01:02:12.656Z,99484.14
2018-08-24T01:02:43.828Z,99484.70
2018-08-24T01:03:15.032Z,99485.19
2018-08-24T01:03:46.252Z,99489.63
2018-08-24T01:04:17.435Z,99485.77
2018-08-24T01:04:48.603Z,99488.79
2018-08-24T01:05:19.845Z,99486.70
2018-08-24T01:05:51.028Z,99483.22
2018-08-24T01:06:22.192Z,99480.20
2018-08-24T01:06:53.391Z,99481.38
2018-08-24T01:07:24.599Z,99477.48
2018-08-24T01:07:55.711Z,99483.83
2018-08-24T01:08:26.878Z,99480.34
2018-08-24T01:08:58.108Z,99481.67
2018-08-24T01:09:29.227Z,99484.81
2018-08-24T01:10:00.411Z,99479.52
2018-08-24T01:10:31.531Z,99481.56
2018-08-24T01:11:02.643Z,99478.08
2018-08-24T01:11:33.760Z,99477.31
2018-08-24T01:12:04.879Z,99480.91
2018-08-24T01:12:35.989Z,99478.87
2018-08-24T01:13:07.100Z,99480.65
2018-08-24T01:13:38.284Z,99479.32
2018-08-24T01:14:09.538Z,99476.30
2018-08-24T01:14:40.719Z,99478.11
2018-08-24T01:15:11.829Z,99478.00
2018-08-24T01:15:43.053Z,99475.84
2018-08-24T01:16:14.226Z,99475.73
2018-08-24T01:16:45.338Z,99476.48
2018-08-24T01:17:16.549Z,99476.86
2018-08-24T01:17:47.753Z,99476.00
2018-08-24T01:18:18.867Z,99480.23
2018-08-24T01:18:50.089Z,99474.94
2018-08-24T01:19:21.213Z,99473.99
2018-08-24T01:19:52.341Z,99484.47
2018-08-24T01:20:23.512Z,99476.53
2018-08-24T01:20:54.699Z,99480.05
2018-08-24T01:21:25.855Z,99475.47
2018-08-24T01:21:56.974Z,99481.14
2018-08-24T01:22:28.182Z,99480.58
2018-08-24T01:22:59.295Z,99481.67
2018-08-24T01:23:30.411Z,99481.86
2018-08-24T01:24:01.528Z,99478.23
2018-08-24T01:24:32.636Z,99475.02
2018-08-24T01:25:03.745Z,99484.17
2018-08-24T01:25:34.863Z,99483.34
2018-08-24T01:26:06.064Z,99479.74
2018-08-24T01:26:37.179Z,99476.72
2018-08-24T01:27:08.288Z,99479.37
2018-08-24T01:27:39.449Z,99472.74
2018-08-24T01:28:10.648Z,99477.47
2018-08-24T01:28:41.765Z,99472.52
2018-08-24T01:29:12.878Z,99469.86
2018-08-24T01:29:44.037Z,99474.33
2018-08-24T01:30:15.241Z,99470.09
2018-08-24T01:30:46.367Z,99477.28
2018-08-24T01:31:17.503Z,99470.28
2018-08-24T01:31:48.721Z,99473.99
2018-08-24T01:32:19.833Z,99469.98
2018-08-24T01:32:51.036Z,99472.94
2018-08-24T01:33:22.159Z,99471.91
2018-08-24T01:33:53.344Z,99469.38
2018-08-24T01:34:24.573Z,99473.84
2018-08-24T01:34:55.698Z,99472.89
2018-08-24T01:35:26.819Z,99473.05
2018-08-24T01:35:58.056Z,99470.02
2018-08-24T01:36:29.325Z,99474.52
2018-08-24T01:37:00.479Z,99472.25
2018-08-24T01:37:31.643Z,99470.93
2018-08-24T01:38:02.861Z,99469.98
2018-08-24T01:38:34.026Z,99468.17
2018-08-24T01:39:05.204Z,99467.91
2018-08-24T01:39:36.316Z,99463.55
2018-08-24T01:40:07.420Z,99464.88
2018-08-24T01:40:38.531Z,99464.88
2018-08-24T01:41:09.710Z,99466.12
2018-08-24T01:41:40.875Z,99463.92
2018-08-24T01:42:11.995Z,99465.14
2018-08-24T01:42:43.192Z,99464.69
2018-08-24T01:43:14.370Z,99465.63
2018-08-24T01:43:45.473Z,99462.98
2018-08-24T01:44:16.641Z,99464.69
2018-08-24T01:44:47.804Z,99469.98
2018-08-24T01:45:18.956Z,99466.01
2018-08-24T01:45:50.300Z,99463.92
2018-08-24T01:46:21.451Z,99462.22
2018-08-24T01:46:52.566Z,99463.17
2018-08-24T01:47:23.726Z,99467.63
2018-08-24T01:47:54.900Z,99463.77
2018-08-24T01:48:26.132Z,99462.91
2018-08-24T01:48:57.307Z,99459.05
2018-08-24T01:49:28.493Z,99465.21
2018-08-24T01:49:59.671Z,99461.92
2018-08-24T01:50:30.801Z,99462.87
2018-08-24T01:51:02.060Z,99464.76
2018-08-24T01:51:33.332Z,99460.55
2018-08-24T01:52:04.540Z,99463.98
2018-08-24T01:52:35.657Z,99460.92
2018-08-24T01:53:06.833Z,99458.64
2018-08-24T01:53:37.952Z,99459.70
2018-08-24T01:54:09.077Z,99457.73
2018-08-24T01:54:40.184Z,99460.00
2018-08-24T01:55:11.344Z,99460.00
2018-08-24T01:55:42.540Z,99454.92
2018-08-24T01:56:13.718Z,99454.27
2018-08-24T01:56:44.924Z,99458.24
2018-08-24T01:57:16.145Z,99461.34
2018-08-24T01:57:47.325Z,99457.70
2018-08-24T01:58:18.435Z,99458.27
2018-08-24T01:58:49.655Z,99458.94
2018-08-24T01:59:20.811Z,99461.31
2018-08-24T01:59:51.952Z,99462.85
2018-08-24T02:00:23.180Z,99459.06
2018-08-24T02:00:54.362Z,99463.52
2018-08-24T02:01:25.484Z,99462.20
2018-08-24T02:01:56.608Z,99459.63
2018-08-24T02:02:27.765Z,99455.77
2018-08-24T02:02:59.001Z,99455.39
2018-08-24T02:03:30.212Z,99460.33
2018-08-24T02:04:01.345Z,99455.23
2018-08-24T02:04:32.500Z,99459.75
2018-08-24T02:05:03.651Z,99460.73
2018-08-24T02:05:34.817Z,99452.22
2018-08-24T02:06:05.961Z,99454.70
2018-08-24T02:06:37.137Z,99455.74
2018-08-24T02:07:08.325Z,99456.30
2018-08-24T02:07:39.452Z,99451.77
2018-08-24T02:08:10.571Z,99451.28
2018-08-24T02:08:41.692Z,99444.60
2018-08-24T02:09:12.811Z,99449.89
2018-08-24T02:09:43.930Z,99446.58
2018-08-24T02:10:15.097Z,99450.55
2018-08-24T02:10:46.211Z,99456.18
2018-08-24T02:11:17.332Z,99449.50
2018-08-24T02:11:48.486Z,99453.53
2018-08-24T02:12:19.599Z,99450.55
2018-08-24T02:12:50.721Z,99454.59
2018-08-24T02:13:21.895Z,99450.73
2018-08-24T02:13:53.017Z,99453.86
2018-08-24T02:14:24.252Z,99450.83
2018-08-24T02:14:55.384Z,99448.02
2018-08-24T02:15:26.503Z,99452.06
2018-08-24T02:15:57.655Z,99449.42
2018-08-24T02:16:28.824Z,99451.23
2018-08-24T02:17:00.056Z,99452.45
2018-08-24T02:17:31.330Z,99453.03
2018-08-24T02:18:02.566Z,99445.66
2018-08-24T02:18:33.775Z,99452.84
2018-08-24T02:19:04.900Z,99449.08
2018-08-24T02:19:36.077Z,99447.94
2018-08-24T02:20:07.266Z,99451.17
2018-08-24T02:20:38.376Z,99446.83
2018-08-24T02:21:09.493Z,99451.35
2018-08-24T02:21:40.620Z,99447.00
2018-08-24T02:22:11.817Z,99452.22
2018-08-24T02:22:43.009Z,99442.59
2018-08-24T02:23:14.173Z,99449.48
2018-08-24T02:23:45.301Z,99447.36
2018-08-24T02:24:16.416Z,99450.00
2018-08-24T02:24:47.646Z,99448.34
2018-08-24T02:25:18.776Z,99448.03
2018-08-24T02:25:49.949Z,99422.19
2018-08-24T02:26:21.134Z,99451.64
2018-08-24T02:26:52.322Z,99448.34
2018-08-24T02:27:23.440Z,99448.72
2018-08-24T02:27:54.666Z,99450.50
2018-08-24T02:28:25.788Z,99451.26
2018-08-24T02:28:56.911Z,99447.95
2018-08-24T02:29:28.088Z,99450.39
2018-08-24T02:29:59.360Z,99450.24
2018-08-24T02:30:30.483Z,99452.57
2018-08-24T02:31:01.685Z,99450.90
2018-08-24T02:31:32.854Z,99441.34
2018-08-24T02:32:04.070Z,99448.33
2018-08-24T02:32:35.241Z,99450.24
2018-08-24T02:33:06.363Z,99449.94
2018-08-24T02:33:37.600Z,99454.56
2018-08-24T02:34:08.752Z,99447.67
2018-08-24T02:34:39.868Z,99448.72
2018-08-24T02:35:11.044Z,99449.66
2018-08-24T02:35:42.153Z,99449.00
2018-08-24T02:36:13.335Z,99452.03
2018-08-24T02:36:44.500Z,99449.11
2018-08-24T02:37:15.620Z,99449.94
2018-08-24T02:37:46.729Z,99445.70
2018-08-24T02:38:17.845Z,99451.55
2018-08-24T02:38:49.056Z,99448.62
2018-08-24T02:39:20.183Z,99451.47
2018-08-24T02:39:51.298Z,99450.81
2018-08-24T02:40:22.469Z,99449.11
2018-08-24T02:40:53.649Z,99450.92
2018-08-24T02:41:24.843Z,99448.27
2018-08-24T02:41:55.972Z,99443.44
2018-08-24T02:42:27.173Z,99445.70
2018-08-24T02:42:58.312Z,99449.11
2018-08-24T02:43:29.533Z,99443.82
2018-08-24T02:44:00.721Z,99445.63
2018-08-24T02:44:31.945Z,99448.94
2018-08-24T02:45:03.116Z,99442.67
2018-08-24T02:45:34.269Z,99447.96
2018-08-24T02:46:05.485Z,99446.64
2018-08-24T02:46:36.724Z,99448.73
2018-08-24T02:47:07.883Z,99446.08
2018-08-24T02:47:39.010Z,99445.88
2018-08-24T02:48:10.181Z,99446.53
2018-08-24T02:48:41.348Z,99442.02
2018-08-24T02:49:12.461Z,99440.03
2018-08-24T02:49:43.684Z,99441.80
2018-08-24T02:50:14.917Z,99437.84
2018-08-24T02:50:46.081Z,99440.13
2018-08-24T02:51:17.193Z,99442.12
2018-08-24T02:51:48.304Z,99442.67
2018-08-24T02:52:19.432Z,99435.02
2018-08-24T02:52:50.558Z,99437.11
2018-08-24T02:53:21.727Z,99434.95
2018-08-24T02:53:52.848Z,99441.08
2018-08-24T02:54:24.031Z,99441.18
2018-08-24T02:54:55.217Z,99435.23
2018-08-24T02:55:26.426Z,99438.92
2018-08-24T02:55:57.664Z,99437.31
2018-08-24T02:56:28.885Z,99438.84
2018-08-24T02:57:00.060Z,99442.50
2018-08-24T02:57:31.276Z,99431.09
2018-08-24T02:58:02.428Z,99440.34
2018-08-24T02:58:33.596Z,99437.31
2018-08-24T02:59:04.720Z,99434.67
2018-08-24T02:59:35.836Z,99434.22
2018-08-24T03:00:07.048Z,99438.53
2018-08-24T03:00:38.225Z,99437.59
2018-08-24T03:01:09.399Z,99435.72
2018-08-24T03:01:40.576Z,99434.78
2018-08-24T03:02:11.691Z,99433.84
2018-08-24T03:02:42.810Z,99438.92
2018-08-24T03:03:14.001Z,99441.01
2018-08-24T03:03:45.154Z,99432.59
2018-08-24T03:04:16.383Z,99436.11
2018-08-24T03:04:47.555Z,99437.77
2018-08-24T03:05:18.824Z,99434.30
2018-08-24T03:05:49.952Z,99437.59
2018-08-24T03:06:21.177Z,99438.08
2018-08-24T03:06:52.413Z,99433.36
2018-08-24T03:07:23.606Z,99437.22
2018-08-24T03:07:55.116Z,99434.12
2018-08-24T03:08:26.311Z,99436.48
2018-08-24T03:08:57.460Z,99434.88
2018-08-24T03:09:28.632Z,99437.52
2018-08-24T03:09:59.803Z,99437.59
2018-08-24T03:10:30.997Z,99434.67
2018-08-24T03:11:02.234Z,99435.33
2018-08-24T03:11:33.408Z,99438.56
2018-08-24T03:12:04.550Z,99444.89
2018-08-24T03:12:35.792Z,99433.66
2018-08-24T03:13:06.985Z,99437.62
2018-08-24T03:13:38.236Z,99443.45
2018-08-24T03:14:09.460Z,99435.42
2018-08-24T03:14:40.703Z,99431.84
2018-08-24T03:15:11.876Z,99436.19
2018-08-24T03:15:43.065Z,99437.62
2018-08-24T03:16:14.331Z,99439.88
2018-08-24T03:16:45.429Z,99436.47
2018-08-24T03:17:16.635Z,99444.39
2018-08-24T03:17:47.753Z,99435.73
2018-08-24T03:18:18.944Z,99441.95
2018-08-24T03:18:50.065Z,99438.92
2018-08-24T03:19:21.278Z,99439.77
2018-08-24T03:19:52.405Z,99442.13
2018-08-24T03:20:23.570Z,99437.13
2018-08-24T03:20:54.709Z,99441.75
2018-08-24T03:21:25.875Z,99439.88
2018-08-24T03:21:57.001Z,99438.17
2018-08-24T03:22:28.115Z,99438.66
2018-08-24T03:22:59.292Z,99437.78
2018-08-24T03:23:30.447Z,99440.81
2018-08-24T03:24:01.568Z,99440.26
2018-08-24T03:24:32.768Z,99440.70
2018-08-24T03:25:03.885Z,99435.53
2018-08-24T03:25:35.070Z,99435.53
2018-08-24T03:26:06.309Z,99439.98
2018-08-24T03:26:37.476Z,99436.02
2018-08-24T03:27:08.591Z,99441.30
2018-08-24T03:27:39.812Z,99438.17
2018-08-24T03:28:10.992Z,99436.85
2018-08-24T03:28:42.173Z,99441.30
2018-08-24T03:29:13.296Z,99436.09
2018-08-24T03:29:44.474Z,99438.38
2018-08-24T03:30:15.584Z,99438.44
2018-08-24T03:30:46.704Z,99439.10
2018-08-24T03:31:17.945Z,99443.65
2018-08-24T03:31:49.072Z,99441.11
2018-08-24T03:32:20.192Z,99440.23
2018-08-24T03:32:51.344Z,99435.89
2018-08-24T03:33:22.503Z,99438.08
2018-08-24T03:33:53.673Z,99440.72
2018-08-24T03:34:24.891Z,99445.52
2018-08-24T03:34:56.008Z,99441.94
2018-08-24T03:35:27.130Z,99440.14
2018-08-24T03:35:58.244Z,99440.23
2018-08-24T03:36:29.361Z,99443.81
2018-08-24T03:37:00.526Z,99439.50
2018-08-24T03:37:31.657Z,99440.44
2018-08-24T03:38:02.815Z,99430.81
2018-08-24T03:38:33.953Z,99437.03
2018-08-24T03:39:05.072Z,99429.11
2018-08-24T03:39:36.188Z,99434.01
2018-08-24T03:40:07.360Z,99436.55
2018-08-24T03:40:38.560Z,99437.31
2018-08-24T03:41:09.678Z,99434.67
2018-08-24T03:41:40.803Z,99437.80
2018-08-24T03:42:11.990Z,99435.16
2018-08-24T03:42:43.169Z,99432.91
2018-08-24T03:43:14.385Z,99433.45
2018-08-24T03:43:45.512Z,99432.13
2018-08-24T03:44:16.631Z,99434.39
2018-08-24T03:44:47.754Z,99433.08
2018-08-24T03:45:18.874Z,99432.69
2018-08-24T03:45:50.000Z,99440.16
2018-08-24T03:46:21.128Z,99437.80
2018-08-24T03:46:52.350Z,99431.58
2018-08-24T03:47:23.527Z,99437.59
2018-08-24T03:47:54.692Z,99436.66
2018-08-24T03:48:25.920Z,99435.72
2018-08-24T03:48:57.096Z,99435.34
2018-08-24T03:49:28.216Z,99442.14
2018-08-24T03:49:59.335Z,99437.80
2018-08-24T03:50:30.505Z,99441.77
2018-08-24T03:51:01.689Z,99438.36
2018-08-24T03:51:32.853Z,99437.97
2018-08-24T03:52:04.023Z,99439.29
2018-08-24T03:52:35.143Z,99437.80
2018-08-24T03:53:06.363Z,99438.92
2018-08-24T03:53:37.554Z,99434.78
2018-08-24T03:54:08.684Z,99440.42
2018-08-24T03:54:39.853Z,99435.52
2018-08-24T03:55:11.035Z,99440.63
2018-08-24T03:55:42.266Z,99441.75
2018-08-24T03:56:13.382Z,99436.75
2018-08-24T03:56:44.496Z,99440.44
2018-08-24T03:57:15.673Z,99433.84
2018-08-24T03:57:46.789Z,99433.63
2018-08-24T03:58:18.030Z,99437.04
2018-08-24T03:58:49.215Z,99437.87
2018-08-24T03:59:20.372Z,99430.77
2018-08-24T03:59:51.529Z,99438.03
2018-08-24T04:00:22.701Z,99434.16
2018-08-24T04:00:53.954Z,99436.31
2018-08-24T04:01:25.074Z,99441.70
2018-08-24T04:01:56.303Z,99442.91
2018-08-24T04:02:27.431Z,99440.16
2018-08-24T04:02:58.605Z,99440.65
2018-08-24T04:03:29.844Z,99439.70
2018-08-24T04:04:00.974Z,99442.80
2018-08-24T04:04:32.143Z,99440.38
2018-08-24T04:05:03.313Z,99445.28
2018-08-24T04:05:34.453Z,99442.26
2018-08-24T04:06:05.566Z,99441.53
2018-08-24T04:06:36.676Z,99438.89
2018-08-24T04:07:07.845Z,99437.08
2018-08-24T04:07:38.962Z,99434.59
2018-08-24T04:08:10.075Z,99437.06
2018-08-24T04:08:41.252Z,99437.98
2018-08-24T04:09:12.412Z,99436.62
2018-08-24T04:09:43.523Z,99438.39
2018-08-24T04:10:14.691Z,99435.09
2018-08-24T04:10:45.956Z,99436.03
2018-08-24T04:11:17.088Z,99430.86
2018-08-24T04:11:48.318Z,99426.95
2018-08-24T04:12:19.504Z,99427.47
2018-08-24T04:12:50.678Z,99426.54
2018-08-24T04:13:21.828Z,99428.22
2018-08-24T04:13:53.027Z,99429.66
2018-08-24T04:14:24.250Z,99426.48
2018-08-24T04:14:55.415Z,99430.91
2018-08-24T04:15:26.531Z,99429.45
2018-08-24T04:15:57.648Z,99430.09
2018-08-24T04:16:28.843Z,99427.50
2018-08-24T04:16:59.961Z,99431.31
2018-08-24T04:17:31.128Z,99430.66
2018-08-24T04:18:02.298Z,99429.50
2018-08-24T04:18:33.475Z,99434.11
2018-08-24T04:19:04.675Z,99428.75
2018-08-24T04:19:35.863Z,99429.33
2018-08-24T04:20:06.988Z,99430.14
2018-08-24T04:20:38.157Z,99427.13
2018-08-24T04:21:09.318Z,99430.16
2018-08-24T04:21:40.518Z,99428.87
2018-08-24T04:22:11.684Z,99422.61
2018-08-24T04:22:42.808Z,99425.77
2018-08-24T04:23:13.925Z,99432.07
2018-08-24T04:23:45.043Z,99430.14
2018-08-24T04:24:16.219Z,99431.09
2018-08-24T04:24:47.393Z,99434.00
2018-08-24T04:25:18.621Z,99431.95
2018-08-24T04:25:49.835Z,99434.22
2018-08-24T04:26:21.001Z,99429.50
2018-08-24T04:26:52.149Z,99431.40
2018-08-24T04:27:23.374Z,99429.84
2018-08-24T04:27:54.553Z,99428.61
2018-08-24T04:28:25.773Z,99431.00
2018-08-24T04:28:56.895Z,99431.47
2018-08-24T04:29:28.068Z,99429.63
2018-08-24T04:29:59.228Z,99433.29
2018-08-24T04:30:30.503Z,99430.00
2018-08-24T04:31:01.677Z,99429.77
2018-08-24T04:31:32.796Z,99432.92
2018-08-24T04:32:03.900Z,99428.43
2018-08-24T04:32:35.022Z,99429.37
2018-08-24T04:33:06.199Z,99427.91
2018-08-24T04:33:37.326Z,99430.67
2018-08-24T04:34:08.510Z,99429.94
2018-08-24T04:34:39.693Z,99434.30
2018-08-24T04:35:10.827Z,99435.20
2018-08-24T04:35:41.980Z,99431.62
2018-08-24T04:36:13.157Z,99427.06
2018-08-24T04:36:44.309Z,99435.94
2018-08-24T04:37:15.537Z,99430.19
2018-08-24T04:37:46.718Z,99429.42
2018-08-24T04:38:17.828Z,99434.91
2018-08-24T04:38:48.933Z,99430.08
2018-08-24T04:39:20.082Z,99426.91
2018-08-24T04:39:51.197Z,99433.66
2018-08-24T04:40:22.391Z,99427.41
2018-08-24T04:40:53.576Z,99429.13
2018-08-24T04:41:24.742Z,99428.22
2018-08-24T04:41:55.918Z,99427.91
2018-08-24T04:42:27.089Z,99425.67
2018-08-24T04:42:58.272Z,99426.92
2018-08-24T04:43:29.498Z,99427.92
2018-08-24T04:44:00.618Z,99424.42
2018-08-24T04:44:31.730Z,99425.28
2018-08-24T04:45:02.914Z,99428.45
2018-08-24T04:45:34.198Z,99424.79
2018-08-24T04:46:05.437Z,99434.39
2018-08-24T04:46:36.667Z,99424.25
2018-08-24T04:47:07.793Z,99433.05
2018-08-24T04:47:38.911Z,99430.73
2018-08-24T04:48:10.124Z,99435.04
2018-08-24T04:48:41.245Z,99433.08
2018-08-24T04:49:12.409Z,99434.55
2018-08-24T04:49:43.542Z,99429.08
2018-08-24T04:50:14.716Z,99430.41
2018-08-24T04:50:45.857Z,99430.88
2018-08-24T04:51:17.070Z,99429.61
2018-08-24T04:51:48.192Z,99431.50
2018-08-24T04:52:19.355Z,99431.09
2018-08-24T04:52:50.529Z,99431.09
2018-08-24T04:53:21.664Z,99431.23
2018-08-24T04:53:52.861Z,99429.90
2018-08-24T04:54:24.095Z,99429.55
2018-08-24T04:54:55.281Z,99432.02
2018-08-24T04:55:26.464Z,99429.91
2018-08-24T04:55:57.654Z,99432.16
2018-08-24T04:56:28.841Z,99431.09
2018-08-24T04:57:00.035Z,99431.23
2018-08-24T04:57:31.244Z,99429.59
2018-08-24T04:58:02.378Z,99422.41
2018-08-24T04:58:33.565Z,99407.08
2018-08-24T04:59:04.801Z,99423.33
2018-08-24T04:59:35.967Z,99423.16
2018-08-24T05:00:07.139Z,99424.59
2018-08-24T05:00:38.296Z,99421.47
2018-08-24T05:01:09.426Z,99420.84
2018-08-24T05:01:40.561Z,99421.37
2018-08-24T05:02:11.744Z,99422.86
2018-08-24T05:02:42.906Z,99427.91
2018-08-24T05:03:14.085Z,99423.20
2018-08-24T05:03:45.206Z,99428.17
2018-08-24T05:04:16.329Z,99415.69
2018-08-24T05:04:47.451Z,99423.60
2018-08-24T05:05:18.665Z,99426.40
2018-08-24T05:05:49.932Z,99418.91
2018-08-24T05:06:21.006Z,99422.54
2018-08-24T05:06:52.233Z,99422.94
2018-08-24T05:07:23.356Z,99421.87
2018-08-24T05:07:54.481Z,99426.00
2018-08-24T05:08:25.719Z,99423.87
2018-08-24T05:08:56.911Z,99416.72
2018-08-24T05:09:28.023Z,99419.59
2018-08-24T05:09:59.142Z,99424.94
2018-08-24T05:10:30.304Z,99422.81
2018-08-24T05:11:01.477Z,99417.62
2018-08-24T05:11:32.659Z,99420.65
2018-08-24T05:12:03.804Z,99416.32
2018-08-24T05:12:35.028Z,99422.97
2018-08-24T05:13:06.217Z,99417.73
2018-08-24T05:13:37.339Z,99418.56
2018-08-24T05:14:08.511Z,99419.40
2018-08-24T05:14:39.760Z,99413.17
2018-08-24T05:15:11.001Z,99412.89
2018-08-24T05:15:42.173Z,99412.86
2018-08-24T05:16:13.287Z,99413.92
2018-08-24T05:16:44.410Z,99411.52
2018-08-24T05:17:15.616Z,99407.89
2018-08-24T05:17:46.853Z,99416.31
2018-08-24T05:18:17.972Z,99414.45
2018-08-24T05:18:49.140Z,99423.76
2018-08-24T05:19:20.272Z,99407.50
2018-08-24T05:19:51.440Z,99416.44
2018-08-24T05:20:22.631Z,99414.22
2018-08-24T05:20:53.804Z,99416.06
2018-08-24T05:21:25.000Z,99413.20
2018-08-24T05:21:56.120Z,99412.09
2018-08-24T05:22:27.339Z,99415.91
2018-08-24T05:22:58.560Z,99410.20
2018-08-24T05:23:29.672Z,99410.52
2018-08-24T05:24:00.901Z,99411.70
2018-08-24T05:24:32.031Z,99415.84
2018-08-24T05:25:03.242Z,99414.94
2018-08-24T05:25:34.363Z,99417.27
2018-08-24T05:26:05.537Z,99415.29
2018-08-24T05:26:36.668Z,99415.52
2018-08-24T05:27:07.787Z,99413.45
2018-08-24T05:27:39.050Z,99423.16
2018-08-24T05:28:10.297Z,99419.61
2018-08-24T05:28:41.437Z,99415.75
2018-08-24T05:29:12.552Z,99411.77
2018-08-24T05:29:43.819Z,99414.98
2018-08-24T05:30:15.015Z,99415.03
2018-08-24T05:30:46.140Z,99419.14
2018-08-24T05:31:17.256Z,99417.92
2018-08-24T05:31:48.375Z,99415.67
2018-08-24T05:32:19.493Z,99417.92
2018-08-24T05:32:50.761Z,99418.32
2018-08-24T05:33:21.876Z,99418.60
2018-08-24T05:33:53.002Z,99417.38
2018-08-24T05:34:24.180Z,99416.13
2018-08-24T05:34:55.489Z,99410.02
2018-08-24T05:35:26.680Z,99419.16
2018-08-24T05:35:57.880Z,99413.36
2018-08-24T05:36:29.125Z,99417.17
2018-08-24T05:37:00.321Z,99412.36
2018-08-24T05:37:31.500Z,99411.81
2018-08-24T05:38:02.640Z,99417.13
2018-08-24T05:38:33.812Z,99419.09
2018-08-24T05:39:05.054Z,99414.06
2018-08-24T05:39:36.245Z,99410.20
2018-08-24T05:40:07.413Z,99419.20
2018-08-24T05:40:38.709Z,99411.06
2018-08-24T05:41:09.842Z,99409.74
2018-08-24T05:41:41.028Z,99414.98
2018-08-24T05:42:12.156Z,99414.28
2018-08-24T05:42:43.321Z,99418.11
2018-08-24T05:43:14.500Z,99415.18
2018-08-24T05:43:45.622Z,99415.66
2018-08-24T05:44:16.732Z,99416.14
2018-08-24T05:44:47.907Z,99413.78
2018-08-24T05:45:19.028Z,99411.55
2018-08-24T05:45:50.204Z,99412.50
2018-08-24T05:46:21.396Z,99410.05
2018-08-24T05:46:52.517Z,99409.56
2018-08-24T05:47:23.705Z,99409.88
2018-08-24T05:47:54.827Z,99414.00
2018-08-24T05:48:26.017Z,99408.42
2018-08-24T05:48:57.291Z,99412.36
2018-08-24T05:49:28.478Z,99410.03
2018-08-24T05:49:59.638Z,99408.35
2018-08-24T05:50:30.826Z,99412.77
2018-08-24T05:51:02.041Z,99416.16
2018-08-24T05:51:33.205Z,99407.30
2018-08-24T05:52:04.454Z,99413.25
2018-08-24T05:52:35.579Z,99411.34
2018-08-24T05:53:06.762Z,99410.23
2018-08-24T05:53:37.894Z,99410.29
2018-08-24T05:54:09.024Z,99409.16
2018-08-24T05:54:40.271Z,99406.09
2018-08-24T05:55:11.448Z,99409.70
2018-08-24T05:55:42.723Z,99410.69
2018-08-24T05:56:13.838Z,99413.86
2018-08-24T05:56:44.963Z,99409.97
2018-08-24T05:57:16.144Z,99418.23
2018-08-24T05:57:47.373Z,99412.58
2018-08-24T05:58:18.552Z,99412.52
2018-08-24T05:58:49.802Z,99413.24
2018-08-24T05:59:21.001Z,99410.06
2018-08-24T05:59:52.261Z,99414.78
2018-08-24T06:00:23.444Z,99409.29
2018-08-24T06:00:54.569Z,99391.14
2018-08-24T06:01:25.750Z,99412.88
2018-08-24T06:01:56.936Z,99412.88
2018-08-24T06:02:28.059Z,99412.59
2018-08-24T06:02:59.180Z,99414.99
2018-08-24T06:03:30.308Z,99412.17
2018-08-24T06:04:01.496Z,99414.28
2018-08-24T06:04:32.628Z,99415.41
2018-08-24T06:05:03.849Z,99419.27
2018-08-24T06:05:35.094Z,99414.22
2018-08-24T06:06:06.216Z,99418.86